Brownsville, TX

4:56 PM CDT on April 19, 2015 (GMT -0500)
Brownsville-South Padre I International | | Change Station
CLOSE
Current Station
Airport
Location: Brownsville,
Elevation: 20 ft
Nearby Weather Stations

Elev 20 ft 25.91 °N, 97.42 °W | Updated 3 minutes ago

Partly Cloudy
Partly Cloudy
84 °F
Feels Like 92 °F
N
10
Wind Variable Wind from SE

Today
High -- | Low -- °F
--% Chance of Precip.
Yesterday
High -- | Low -- °F
Precip. -- in
7:03 AM 7:55 PM
New Moon, 2% visible
Pressure 29.74 in
Visibility 8.0 miles
Clouds Scattered Clouds 2000 ft
Mostly Cloudy 4700 ft
Heat Index 92 °F
Dew Point 75 °F
Humidity 74%
Rainfall 0.00 in
Snow Depth Not available.
UV 3 out of 12
Pollen 8.80 out of 12
Air Quality Not available.
Flu Activity Local Activity
METAR KBRO 192153Z 13009KT 8SM SCT020 BKN047 29/24 A2975 RMK AO2 SLP071 T02890239

More Conditions Fewer Conditions

Pressure 29.74 in
Visibility 8.0 miles
Clouds Scattered Clouds 2000 ft
Mostly Cloudy 4700 ft
Heat Index 92 °F
Dew Point 75 °F
Humidity 74%
Rainfall 0.00 in
Snow Depth Not available.
UV 3 out of 12
Pollen 8.80 out of 12
Air Quality Not available.
Flu Activity Local Activity
METAR KBRO 192153Z 13009KT 8SM SCT020 BKN047 29/24 A2975 RMK AO2 SLP071 T02890239

More Conditions Fewer Conditions

10-Day Weather Forecast

Almanac

Astronomy

Apr. 19, 2015 Rise Set
Actual Time
Civil Twilight
Nautical Twilight
Astronomical Twilight
Moon
Length of Visible Light
Length of Day
Tomorrow will be .
, % of the Moon is Illuminated

Today's Extremes

State Highs State Lows

Community

WunderPhotos

Upload Photos

1,814,994 photos uploaded!

WunderBlogs® & News

Nearby

Air Quality

  Air Quality AQ Index Pollutant
Not available.

Snow Depth

Station Depth Elevation

Earthquake Activity

City Distance Mag. Time & Date
Minimum magnitude displayed is 2.5.

Coastal Water Temperatures

Place Temperature

Stations

Nearby Weather Stations

Station Location Temp. Windchill Dew Point Humidity Wind Precip. Elev Updated Type